createdAt,value
2019-05-10T00:00:00.921Z,0.00
2019-05-10T00:01:01.012Z,0.00
2019-05-10T00:02:01.106Z,0.00
2019-05-10T00:03:01.198Z,0.00
2019-05-10T00:04:01.285Z,0.00
2019-05-10T00:05:01.406Z,0.00
2019-05-10T00:06:01.480Z,0.00
2019-05-10T00:07:01.570Z,0.00
2019-05-10T00:08:01.662Z,0.00
2019-05-10T00:09:01.761Z,0.00
2019-05-10T00:10:01.848Z,0.00
2019-05-10T00:11:01.933Z,0.00
2019-05-10T00:12:02.540Z,0.00
2019-05-10T00:13:02.114Z,0.00
2019-05-10T00:14:02.207Z,0.00
2019-05-10T00:15:02.288Z,0.00
2019-05-10T00:16:02.380Z,0.00
2019-05-10T00:17:02.487Z,0.00
2019-05-10T00:18:02.560Z,0.00
2019-05-10T00:19:02.649Z,0.00
2019-05-10T00:20:02.742Z,0.00
2019-05-10T00:21:02.835Z,0.00
2019-05-10T00:22:02.923Z,0.00
2019-05-10T00:23:03.015Z,0.00
2019-05-10T00:24:03.106Z,0.00
2019-05-10T00:25:04.946Z,0.00
2019-05-10T00:26:03.295Z,0.00
2019-05-10T00:27:03.392Z,0.00
2019-05-10T00:28:03.544Z,0.00
2019-05-10T00:29:03.640Z,0.00
2019-05-10T00:30:03.670Z,0.00
2019-05-10T00:31:03.770Z,0.00
2019-05-10T00:32:03.849Z,0.00
2019-05-10T00:33:03.943Z,0.00
2019-05-10T00:34:04.030Z,0.00
2019-05-10T00:35:04.126Z,0.00
2019-05-10T00:36:04.220Z,0.00
2019-05-10T00:37:04.325Z,0.00
2019-05-10T00:38:04.410Z,0.00
2019-05-10T00:39:04.501Z,0.00
2019-05-10T00:40:04.613Z,0.00
2019-05-10T00:41:04.701Z,0.00
2019-05-10T00:42:04.795Z,0.00
2019-05-10T00:43:04.882Z,0.00
2019-05-10T00:44:04.973Z,0.00
2019-05-10T00:45:05.068Z,0.00
2019-05-10T00:46:05.164Z,0.00
2019-05-10T00:47:05.250Z,0.00
2019-05-10T00:48:05.339Z,0.00
2019-05-10T00:49:05.430Z,0.00
2019-05-10T00:50:05.523Z,0.00
2019-05-10T00:51:05.614Z,0.00
2019-05-10T00:52:05.717Z,0.00
2019-05-10T00:53:05.801Z,0.00
2019-05-10T00:54:05.887Z,0.00
2019-05-10T00:55:17.890Z,0.00
2019-05-10T00:56:06.070Z,0.00
2019-05-10T00:57:06.168Z,0.00
2019-05-10T00:58:06.255Z,0.00
2019-05-10T00:59:06.348Z,0.00
2019-05-10T01:00:06.439Z,0.00
2019-05-10T01:01:06.550Z,0.00
2019-05-10T01:02:06.657Z,0.00
2019-05-10T01:03:06.714Z,0.00
2019-05-10T01:04:06.806Z,0.00
2019-05-10T01:05:06.905Z,0.00
2019-05-10T01:06:06.987Z,0.00
2019-05-10T01:07:07.081Z,0.00
2019-05-10T01:08:07.173Z,0.00
2019-05-10T01:09:07.285Z,0.00
2019-05-10T01:10:07.357Z,0.00
2019-05-10T01:11:07.449Z,0.00
2019-05-10T01:12:07.548Z,0.00
2019-05-10T01:13:07.635Z,0.00
2019-05-10T01:14:07.729Z,0.00
2019-05-10T01:15:07.820Z,0.00
2019-05-10T01:16:07.912Z,0.00
2019-05-10T01:17:08.008Z,0.00
2019-05-10T01:18:08.097Z,0.00
2019-05-10T01:19:08.189Z,0.00
2019-05-10T01:20:08.284Z,0.00
2019-05-10T01:21:08.378Z,0.00
2019-05-10T01:22:08.465Z,0.00
2019-05-10T01:23:08.558Z,0.00
2019-05-10T01:24:08.650Z,0.00
2019-05-10T01:25:08.741Z,0.00
2019-05-10T01:26:08.833Z,0.00
2019-05-10T01:27:08.928Z,0.00
2019-05-10T01:28:09.015Z,0.00
2019-05-10T01:29:09.116Z,0.00
2019-05-10T01:30:09.204Z,0.00
2019-05-10T01:31:09.308Z,0.00
2019-05-10T01:32:09.401Z,0.00
2019-05-10T01:33:09.495Z,0.00
2019-05-10T01:34:09.661Z,0.00
2019-05-10T01:35:09.674Z,0.00
2019-05-10T01:36:09.765Z,0.00
2019-05-10T01:37:09.858Z,0.00
2019-05-10T01:38:09.946Z,4.00
2019-05-10T01:39:10.037Z,0.00
2019-05-10T01:40:10.131Z,0.00
2019-05-10T01:41:10.224Z,0.00
2019-05-10T01:42:10.312Z,0.00
2019-05-10T01:43:10.403Z,0.00
2019-05-10T01:44:10.497Z,0.00
2019-05-10T01:45:10.587Z,0.00
2019-05-10T01:46:10.683Z,0.00
2019-05-10T01:47:10.772Z,0.00
2019-05-10T01:48:10.865Z,0.00
2019-05-10T01:49:10.958Z,0.00
2019-05-10T01:50:11.051Z,0.00
2019-05-10T01:51:11.146Z,0.00
2019-05-10T01:52:11.228Z,0.00
2019-05-10T01:53:11.322Z,0.00
2019-05-10T01:54:11.409Z,0.00
2019-05-10T01:55:11.505Z,0.00
2019-05-10T01:56:11.600Z,0.00
2019-05-10T01:57:11.687Z,0.00
2019-05-10T01:58:11.775Z,0.00
2019-05-10T01:59:11.867Z,0.00
2019-05-10T02:00:11.959Z,0.00
2019-05-10T02:01:12.052Z,0.00
2019-05-10T02:02:12.145Z,0.00
2019-05-10T02:03:12.230Z,0.00
2019-05-10T02:04:12.324Z,0.00
2019-05-10T02:05:12.416Z,0.00
2019-05-10T02:06:12.506Z,0.00
2019-05-10T02:07:12.600Z,0.00
2019-05-10T02:08:12.695Z,0.00
2019-05-10T02:09:12.781Z,0.00
2019-05-10T02:10:12.876Z,0.00
2019-05-10T02:11:12.967Z,0.00
2019-05-10T02:12:13.062Z,0.00
2019-05-10T02:13:13.151Z,0.00
2019-05-10T02:14:13.243Z,0.00
2019-05-10T02:15:13.329Z,0.00
2019-05-10T02:16:13.424Z,0.00
2019-05-10T02:17:13.518Z,0.00
2019-05-10T02:18:13.610Z,0.00
2019-05-10T02:19:13.701Z,0.00
2019-05-10T02:20:13.792Z,0.00
2019-05-10T02:21:13.882Z,0.00
2019-05-10T02:22:13.977Z,0.00
2019-05-10T02:23:14.067Z,0.00
2019-05-10T02:24:14.160Z,0.00
2019-05-10T02:25:14.332Z,0.00
2019-05-10T02:26:14.344Z,0.00
2019-05-10T02:27:14.437Z,0.00
2019-05-10T02:28:14.526Z,0.00
2019-05-10T02:29:14.623Z,0.00
2019-05-10T02:30:14.720Z,0.00
2019-05-10T02:31:14.813Z,0.00
2019-05-10T02:32:14.896Z,0.00
2019-05-10T02:33:14.986Z,0.00
2019-05-10T02:34:15.074Z,0.00
2019-05-10T02:35:15.166Z,0.00
2019-05-10T02:36:15.256Z,0.00
2019-05-10T02:37:15.354Z,0.00
2019-05-10T02:38:15.439Z,0.00
2019-05-10T02:39:15.530Z,0.00
2019-05-10T02:40:15.614Z,0.00
2019-05-10T02:41:15.717Z,0.00
2019-05-10T02:42:15.814Z,0.00
2019-05-10T02:43:15.888Z,0.00
2019-05-10T02:44:15.983Z,0.00
2019-05-10T02:45:16.072Z,0.00
2019-05-10T02:46:16.164Z,0.00
2019-05-10T02:47:16.264Z,0.00
2019-05-10T02:48:23.518Z,0.00
2019-05-10T02:49:16.477Z,0.00
2019-05-10T02:50:16.568Z,0.00
2019-05-10T02:51:16.658Z,0.00
2019-05-10T02:52:16.753Z,0.00
2019-05-10T02:53:16.845Z,0.00
2019-05-10T02:54:16.937Z,0.00
2019-05-10T02:55:17.032Z,0.00
2019-05-10T02:56:29.666Z,0.00
2019-05-10T02:57:17.209Z,0.00
2019-05-10T02:58:17.309Z,0.00
2019-05-10T02:59:17.400Z,0.00
2019-05-10T03:00:17.486Z,0.00
2019-05-10T03:01:17.575Z,4.00
2019-05-10T03:02:17.673Z,4.00
2019-05-10T03:03:17.773Z,4.00
2019-05-10T03:04:17.848Z,4.00
2019-05-10T03:05:17.942Z,4.00
2019-05-10T03:06:18.033Z,0.00
2019-05-10T03:07:18.129Z,4.00
2019-05-10T03:08:18.211Z,4.00
2019-05-10T03:09:18.300Z,4.00
2019-05-10T03:10:18.396Z,8.00
2019-05-10T03:11:18.487Z,8.00
2019-05-10T03:12:18.575Z,8.00
2019-05-10T03:13:18.668Z,4.00
2019-05-10T03:14:18.760Z,8.00
2019-05-10T03:15:18.852Z,8.00
2019-05-10T03:16:18.947Z,8.00
2019-05-10T03:17:19.037Z,12.00
2019-05-10T03:18:19.130Z,8.00
2019-05-10T03:19:19.225Z,12.00
2019-05-10T03:20:19.308Z,16.00
2019-05-10T03:21:19.400Z,16.00
2019-05-10T03:22:19.493Z,20.00
2019-05-10T03:23:19.583Z,20.00
2019-05-10T03:24:19.673Z,20.00
2019-05-10T03:25:19.765Z,24.00
2019-05-10T03:26:19.851Z,32.00
2019-05-10T03:27:19.942Z,32.00
2019-05-10T03:28:20.033Z,36.00
2019-05-10T03:29:20.123Z,36.00
2019-05-10T03:30:20.220Z,40.00
2019-05-10T03:31:20.309Z,44.00
2019-05-10T03:32:20.410Z,44.00
2019-05-10T03:33:20.498Z,44.00
2019-05-10T03:34:20.589Z,44.00
2019-05-10T03:35:20.680Z,44.00
2019-05-10T03:36:20.771Z,48.00
2019-05-10T03:37:20.863Z,44.00
2019-05-10T03:38:20.958Z,44.00
2019-05-10T03:39:21.051Z,48.00
2019-05-10T03:40:21.145Z,52.00
2019-05-10T03:41:21.240Z,56.00
2019-05-10T03:42:21.336Z,56.00
2019-05-10T03:43:21.428Z,60.00
2019-05-10T03:44:21.514Z,64.00
2019-05-10T03:45:21.613Z,76.00
2019-05-10T03:46:21.700Z,80.00
2019-05-10T03:47:21.796Z,88.00
2019-05-10T03:48:21.884Z,100.00
2019-05-10T03:49:21.984Z,116.00
2019-05-10T03:50:22.067Z,124.00
2019-05-10T03:51:22.176Z,136.00
2019-05-10T03:52:22.271Z,148.00
2019-05-10T03:53:22.381Z,160.00
2019-05-10T03:54:22.454Z,176.00
2019-05-10T03:55:22.550Z,196.00
2019-05-10T03:56:22.636Z,212.00
2019-05-10T03:57:22.733Z,236.00
2019-05-10T03:58:22.896Z,264.00
2019-05-10T03:59:22.920Z,296.00
2019-05-10T04:00:23.014Z,316.00
2019-05-10T04:01:23.114Z,348.00
2019-05-10T04:02:23.205Z,392.00
2019-05-10T04:03:23.299Z,440.00
2019-05-10T04:04:23.400Z,504.00
2019-05-10T04:05:23.493Z,552.00
2019-05-10T04:06:23.586Z,580.00
2019-05-10T04:07:23.679Z,588.00
2019-05-10T04:08:23.770Z,592.00
2019-05-10T04:09:23.867Z,544.00
2019-05-10T04:10:23.951Z,548.00
2019-05-10T04:11:24.039Z,508.00
2019-05-10T04:12:24.138Z,468.00
2019-05-10T04:13:24.220Z,492.00
2019-05-10T04:14:24.325Z,444.00
2019-05-10T04:15:24.405Z,508.00
2019-05-10T04:16:24.506Z,632.00
2019-05-10T04:17:24.587Z,652.00
2019-05-10T04:18:24.681Z,696.00
2019-05-10T04:19:24.772Z,768.00
2019-05-10T04:20:24.862Z,832.00
2019-05-10T04:21:24.954Z,932.00
2019-05-10T04:22:25.057Z,980.00
2019-05-10T04:23:25.146Z,1008.00
2019-05-10T04:24:25.238Z,1000.00
2019-05-10T04:25:25.333Z,984.00
2019-05-10T04:26:25.423Z,1048.00
2019-05-10T04:27:32.000Z,1292.00
2019-05-10T04:28:25.602Z,1412.00
2019-05-10T04:29:25.700Z,1528.00
2019-05-10T04:30:25.871Z,1532.00
2019-05-10T04:31:25.881Z,1600.00
2019-05-10T04:32:25.970Z,1672.00
2019-05-10T04:33:26.062Z,1772.00
2019-05-10T04:34:26.153Z,1880.00
2019-05-10T04:35:26.248Z,1988.00
2019-05-10T04:36:26.369Z,2152.00
2019-05-10T04:37:26.471Z,2248.00
2019-05-10T04:38:26.543Z,2280.00
2019-05-10T04:39:27.679Z,2228.00
2019-05-10T04:40:26.697Z,2176.00
2019-05-10T04:41:26.800Z,2172.00
2019-05-10T04:42:26.891Z,2184.00
2019-05-10T04:43:26.980Z,2272.00
2019-05-10T04:44:27.088Z,2284.00
2019-05-10T04:45:27.165Z,2332.00
2019-05-10T04:46:27.260Z,2296.00
2019-05-10T04:47:27.360Z,2400.00
2019-05-10T04:48:27.449Z,2612.00
2019-05-10T04:49:27.537Z,2660.00
2019-05-10T04:50:27.630Z,2584.00
2019-05-10T04:51:27.726Z,2596.00
2019-05-10T04:52:27.816Z,2548.00
2019-05-10T04:53:27.912Z,2576.00
2019-05-10T04:54:28.017Z,2460.00
2019-05-10T04:55:28.096Z,2336.00
2019-05-10T04:56:28.195Z,2356.00
2019-05-10T04:57:28.284Z,2452.00
2019-05-10T04:58:28.375Z,2668.00
2019-05-10T04:59:28.470Z,2988.00
2019-05-10T05:00:28.561Z,3500.00
2019-05-10T05:01:28.654Z,3560.00
2019-05-10T05:02:28.748Z,3804.00
2019-05-10T05:03:28.827Z,3916.00
2019-05-10T05:04:28.921Z,3784.00
2019-05-10T05:05:29.027Z,3452.00
2019-05-10T05:06:29.111Z,3172.00
2019-05-10T05:07:29.204Z,3096.00
2019-05-10T05:08:29.295Z,3292.00
2019-05-10T05:09:29.389Z,3464.00
2019-05-10T05:10:29.476Z,3604.00
2019-05-10T05:11:29.571Z,3684.00
2019-05-10T05:12:29.663Z,3808.00
2019-05-10T05:13:29.777Z,3996.00
2019-05-10T05:14:29.841Z,4092.00
2019-05-10T05:15:29.933Z,4356.00
2019-05-10T05:16:30.027Z,4240.00
2019-05-10T05:17:30.123Z,4116.00
2019-05-10T05:18:30.218Z,4180.00
2019-05-10T05:19:30.306Z,4296.00
2019-05-10T05:20:30.402Z,4184.00
2019-05-10T05:21:30.484Z,4788.00
2019-05-10T05:22:30.587Z,5304.00
2019-05-10T05:23:30.684Z,5300.00
2019-05-10T05:24:30.773Z,5196.00
2019-05-10T05:25:35.302Z,5136.00
2019-05-10T05:26:30.960Z,5004.00
2019-05-10T05:27:31.064Z,5076.00
2019-05-10T05:28:31.153Z,5108.00
2019-05-10T05:29:31.240Z,5328.00
2019-05-10T05:30:31.339Z,5056.00
2019-05-10T05:31:31.436Z,4848.00
2019-05-10T05:32:31.540Z,5320.00
2019-05-10T05:33:31.619Z,6036.00
2019-05-10T05:34:31.721Z,5372.00
2019-05-10T05:35:31.808Z,4332.00
2019-05-10T05:36:31.911Z,4656.00
2019-05-10T05:37:32.000Z,4100.00
2019-05-10T05:38:32.095Z,4312.00
2019-05-10T05:39:32.186Z,4132.00
2019-05-10T05:40:32.280Z,4444.00
2019-05-10T05:41:32.378Z,5048.00
2019-05-10T05:42:32.468Z,5256.00
2019-05-10T05:43:32.565Z,4296.00
2019-05-10T05:44:32.675Z,5088.00
2019-05-10T05:45:33.845Z,5312.00
2019-05-10T05:46:32.866Z,6560.00
2019-05-10T05:47:37.593Z,16480.00
2019-05-10T05:48:40.284Z,11536.00
2019-05-10T05:49:33.121Z,5468.00
2019-05-10T05:50:33.219Z,5024.00
2019-05-10T05:51:33.366Z,11668.00
2019-05-10T05:52:33.404Z,3696.00
2019-05-10T05:53:35.953Z,3264.00
2019-05-10T05:54:33.593Z,3128.00
2019-05-10T05:55:33.691Z,3064.00
2019-05-10T05:56:33.782Z,3096.00
2019-05-10T05:57:33.875Z,3204.00
2019-05-10T05:58:38.149Z,3268.00
2019-05-10T05:59:34.065Z,3196.00
2019-05-10T06:00:37.668Z,3296.00
2019-05-10T06:01:34.274Z,3436.00
2019-05-10T06:02:34.348Z,3628.00
2019-05-10T06:03:34.439Z,3804.00
2019-05-10T06:04:34.532Z,4060.00
2019-05-10T06:05:37.131Z,4408.00
2019-05-10T06:06:34.725Z,4840.00
2019-05-10T06:07:37.953Z,4672.00
2019-05-10T06:08:34.914Z,4860.00
2019-05-10T06:09:37.826Z,5628.00
2019-05-10T06:10:35.101Z,5920.00
2019-05-10T06:11:36.027Z,5776.00
2019-05-10T06:12:35.290Z,5468.00
2019-05-10T06:13:35.380Z,6868.00
2019-05-10T06:14:35.470Z,5220.00
2019-05-10T06:15:35.562Z,4808.00
2019-05-10T06:16:35.659Z,4868.00
2019-05-10T06:17:35.756Z,5136.00
2019-05-10T06:18:35.852Z,5436.00
2019-05-10T06:19:35.954Z,7512.00
2019-05-10T06:20:38.121Z,7548.00
2019-05-10T06:21:36.142Z,13696.00
2019-05-10T06:22:38.281Z,21376.00
2019-05-10T06:23:36.915Z,5284.00
2019-05-10T06:24:36.426Z,3436.00
2019-05-10T06:25:40.469Z,3888.00
2019-05-10T06:26:36.616Z,5508.00
2019-05-10T06:27:41.116Z,4752.00
2019-05-10T06:28:57.501Z,4336.00
2019-05-10T06:29:36.895Z,4084.00
2019-05-10T06:30:36.988Z,3560.00
2019-05-10T06:31:37.085Z,3236.00
2019-05-10T06:32:37.177Z,3556.00
2019-05-10T06:33:39.656Z,3468.00
2019-05-10T06:34:38.870Z,3496.00
2019-05-10T06:35:37.456Z,3588.00
2019-05-10T06:36:37.551Z,3456.00
2019-05-10T06:37:37.650Z,2880.00
2019-05-10T06:38:37.745Z,3232.00
2019-05-10T06:39:37.836Z,3760.00
2019-05-10T06:40:46.522Z,3772.00
2019-05-10T06:41:38.047Z,3588.00
2019-05-10T06:42:38.218Z,2960.00
2019-05-10T06:43:38.227Z,2832.00
2019-05-10T06:44:38.318Z,3132.00
2019-05-10T06:45:38.423Z,4032.00
2019-05-10T06:46:38.514Z,6340.00
2019-05-10T06:47:41.964Z,7376.00
2019-05-10T06:48:38.702Z,8012.00
2019-05-10T06:49:41.684Z,8904.00
2019-05-10T06:50:38.889Z,9288.00
2019-05-10T06:51:42.797Z,8592.00
2019-05-10T06:52:39.088Z,7044.00
2019-05-10T06:53:42.265Z,6232.00
2019-05-10T06:54:39.278Z,6324.00
2019-05-10T06:55:39.374Z,5668.00
2019-05-10T06:56:39.473Z,5264.00
2019-05-10T06:57:39.567Z,5240.00
2019-05-10T06:58:39.656Z,5864.00
2019-05-10T06:59:39.743Z,5684.00
2019-05-10T07:00:44.837Z,5424.00
2019-05-10T07:01:45.217Z,6408.00
2019-05-10T07:02:40.036Z,6680.00
2019-05-10T07:03:40.127Z,6360.00
2019-05-10T07:04:41.234Z,5880.00
2019-05-10T07:05:40.316Z,6096.00
2019-05-10T07:06:40.409Z,5268.00
2019-05-10T07:07:45.441Z,4428.00
2019-05-10T07:08:44.157Z,3444.00
2019-05-10T07:10:01.682Z,3120.00
2019-05-10T07:10:40.792Z,3360.00
2019-05-10T07:11:40.888Z,3008.00
2019-05-10T07:12:41.034Z,2820.00
2019-05-10T07:13:47.105Z,2896.00
2019-05-10T07:14:45.876Z,2668.00
2019-05-10T07:15:44.600Z,2464.00
2019-05-10T07:16:41.358Z,2352.00
2019-05-10T07:17:45.156Z,2300.00
2019-05-10T07:18:41.580Z,2468.00
2019-05-10T07:19:53.203Z,2544.00
2019-05-10T07:20:43.289Z,2540.00
2019-05-10T07:21:44.783Z,2676.00
2019-05-10T07:22:41.954Z,2856.00
2019-05-10T07:23:44.703Z,3208.00
2019-05-10T07:24:42.151Z,3496.00
2019-05-10T07:25:44.022Z,3804.00
2019-05-10T07:26:42.337Z,4088.00
2019-05-10T07:27:42.432Z,4280.00
2019-05-10T07:28:42.530Z,4160.00
2019-05-10T07:29:45.957Z,3908.00
2019-05-10T07:30:42.713Z,3820.00
2019-05-10T07:31:42.802Z,3592.00
2019-05-10T07:32:42.898Z,3280.00
2019-05-10T07:33:42.993Z,3132.00
2019-05-10T07:34:48.773Z,3272.00
2019-05-10T07:35:43.179Z,3560.00
2019-05-10T07:36:43.276Z,4064.00
2019-05-10T07:37:47.753Z,4364.00
2019-05-10T07:38:43.458Z,4536.00
2019-05-10T07:39:43.557Z,4608.00
2019-05-10T07:40:43.660Z,4460.00
2019-05-10T07:41:43.749Z,4340.00
2019-05-10T07:42:45.543Z,4176.00
2019-05-10T07:43:47.714Z,4136.00
2019-05-10T07:44:46.737Z,4232.00
2019-05-10T07:45:44.141Z,4192.00
2019-05-10T07:46:47.038Z,4196.00
2019-05-10T07:47:44.314Z,4300.00
2019-05-10T07:48:47.279Z,4392.00
2019-05-10T07:49:44.499Z,4276.00
2019-05-10T07:50:49.761Z,3744.00
2019-05-10T07:51:44.684Z,3000.00
2019-05-10T07:52:45.779Z,2632.00
2019-05-10T07:53:44.882Z,2472.00
2019-05-10T07:54:47.616Z,2452.00
2019-05-10T07:55:45.074Z,2424.00
2019-05-10T07:56:46.130Z,2308.00
2019-05-10T07:57:45.261Z,2548.00
2019-05-10T07:58:45.358Z,2924.00
2019-05-10T07:59:50.629Z,3168.00
2019-05-10T08:00:46.768Z,3152.00
2019-05-10T08:01:48.998Z,3108.00
2019-05-10T08:02:55.043Z,3324.00
2019-05-10T08:03:51.822Z,4124.00
2019-05-10T08:04:45.921Z,5084.00
2019-05-10T08:05:51.036Z,5372.00
2019-05-10T08:06:48.757Z,5504.00
2019-05-10T08:07:46.202Z,5740.00
2019-05-10T08:08:46.300Z,5300.00
2019-05-10T08:09:48.621Z,4464.00
2019-05-10T08:10:48.695Z,4444.00
2019-05-10T08:11:48.462Z,4844.00
2019-05-10T08:12:48.404Z,5236.00
2019-05-10T08:13:48.592Z,5004.00
2019-05-10T08:14:51.873Z,4388.00
2019-05-10T08:15:48.998Z,4320.00
2019-05-10T08:16:51.883Z,4240.00
2019-05-10T08:17:50.488Z,4180.00
2019-05-10T08:18:49.305Z,4000.00
2019-05-10T08:19:47.330Z,4132.00
2019-05-10T08:20:53.618Z,4112.00
2019-05-10T08:21:48.932Z,4056.00
2019-05-10T08:22:47.612Z,3868.00
2019-05-10T08:23:47.709Z,3716.00
2019-05-10T08:24:52.884Z,3416.00
2019-05-10T08:25:47.895Z,2860.00
2019-05-10T08:26:47.990Z,2536.00
2019-05-10T08:27:50.760Z,2276.00
2019-05-10T08:28:48.176Z,2060.00
2019-05-10T08:29:52.971Z,1864.00
2019-05-10T08:30:58.122Z,1752.00
2019-05-10T08:31:52.841Z,1708.00
2019-05-10T08:32:48.561Z,1716.00
2019-05-10T08:33:53.674Z,1804.00
2019-05-10T08:34:53.048Z,1804.00
2019-05-10T08:35:54.897Z,1816.00
2019-05-10T08:36:48.938Z,1836.00
2019-05-10T08:37:49.032Z,1900.00
2019-05-10T08:39:03.132Z,2072.00
2019-05-10T08:39:55.323Z,2160.00
2019-05-10T08:40:49.314Z,2292.00
2019-05-10T08:42:03.638Z,2568.00
2019-05-10T08:43:02.910Z,3072.00
2019-05-10T08:43:49.598Z,3532.00
2019-05-10T08:44:54.141Z,3832.00
2019-05-10T08:45:52.344Z,3832.00
2019-05-10T08:46:52.343Z,3276.00
2019-05-10T08:47:52.650Z,2804.00
2019-05-10T08:48:51.363Z,2668.00
2019-05-10T08:50:00.001Z,2548.00
2019-05-10T08:50:56.788Z,2384.00
2019-05-10T08:51:52.235Z,2208.00
2019-05-10T08:52:56.313Z,2260.00
2019-05-10T08:53:55.920Z,2416.00
2019-05-10T08:54:54.969Z,2492.00
2019-05-10T08:55:52.477Z,2576.00
2019-05-10T08:56:54.947Z,2712.00
2019-05-10T08:57:52.482Z,2796.00
2019-05-10T08:58:53.344Z,2780.00
2019-05-10T08:59:54.093Z,2756.00
2019-05-10T09:01:09.571Z,2536.00
2019-05-10T09:01:53.670Z,2120.00
2019-05-10T09:02:52.035Z,1852.00
2019-05-10T09:03:55.030Z,1880.00
2019-05-10T09:04:52.911Z,2036.00
2019-05-10T09:05:52.520Z,2160.00
2019-05-10T09:06:55.587Z,2340.00
2019-05-10T09:08:02.389Z,2584.00
2019-05-10T09:09:01.121Z,2792.00
2019-05-10T09:09:53.036Z,2920.00
2019-05-10T09:10:52.959Z,2888.00
2019-05-10T09:11:52.381Z,2848.00
2019-05-10T09:12:57.858Z,2976.00
2019-05-10T09:13:53.393Z,2872.00
2019-05-10T09:14:57.375Z,2696.00
2019-05-10T09:15:56.809Z,2484.00
2019-05-10T09:17:00.702Z,2440.00
2019-05-10T09:17:52.888Z,2168.00
2019-05-10T09:18:53.647Z,1832.00
2019-05-10T09:19:53.052Z,1644.00
2019-05-10T09:20:54.558Z,1520.00
2019-05-10T09:21:54.992Z,1504.00
2019-05-10T09:22:53.327Z,1524.00
2019-05-10T09:24:01.657Z,1540.00
2019-05-10T09:24:53.515Z,1556.00
2019-05-10T09:25:53.595Z,1608.00
2019-05-10T09:26:56.941Z,1692.00
2019-05-10T09:27:53.787Z,1836.00
2019-05-10T09:28:57.557Z,2080.00
2019-05-10T09:29:53.970Z,2308.00
2019-05-10T09:31:00.637Z,2412.00
2019-05-10T09:31:54.160Z,2452.00
2019-05-10T09:32:54.254Z,2372.00
2019-05-10T09:33:54.509Z,2180.00
2019-05-10T09:34:54.494Z,2080.00
2019-05-10T09:35:55.007Z,2308.00
2019-05-10T09:36:54.619Z,2356.00
2019-05-10T09:37:58.532Z,2676.00
2019-05-10T09:38:54.819Z,2632.00
2019-05-10T09:40:04.028Z,2276.00
2019-05-10T09:40:56.316Z,2052.00
2019-05-10T09:41:55.108Z,2068.00
2019-05-10T09:42:59.407Z,2204.00
2019-05-10T09:43:55.282Z,2128.00
2019-05-10T09:44:55.372Z,2040.00
2019-05-10T09:45:55.467Z,1940.00
2019-05-10T09:46:55.561Z,2136.00
2019-05-10T09:47:55.658Z,2312.00
2019-05-10T09:49:06.161Z,2508.00
2019-05-10T09:49:58.855Z,2384.00
2019-05-10T09:51:00.213Z,2600.00
2019-05-10T09:51:56.041Z,2848.00
2019-05-10T09:52:56.117Z,2960.00
2019-05-10T09:53:57.604Z,2732.00
2019-05-10T09:54:56.979Z,2556.00
2019-05-10T09:56:02.624Z,2684.00
2019-05-10T09:56:57.501Z,2956.00
2019-05-10T09:57:58.376Z,3328.00
2019-05-10T09:58:58.239Z,3912.00
2019-05-10T09:59:57.291Z,4276.00
2019-05-10T10:01:12.743Z,4696.00
2019-05-10T10:01:57.217Z,5068.00
2019-05-10T10:03:01.588Z,5328.00
2019-05-10T10:03:58.348Z,5620.00
2019-05-10T10:04:58.879Z,5496.00
2019-05-10T10:06:05.191Z,4928.00
2019-05-10T10:06:58.073Z,4104.00
2019-05-10T10:07:57.877Z,3520.00
2019-05-10T10:08:57.734Z,3212.00
2019-05-10T10:09:57.727Z,2872.00
2019-05-10T10:11:01.148Z,2408.00
2019-05-10T10:12:02.827Z,2228.00
2019-05-10T10:13:07.649Z,2488.00
2019-05-10T10:14:00.011Z,2956.00
2019-05-10T10:14:58.193Z,3612.00
2019-05-10T10:15:58.294Z,3888.00
2019-05-10T10:17:02.761Z,3816.00
2019-05-10T10:17:58.478Z,3604.00
2019-05-10T10:18:58.571Z,3632.00
2019-05-10T10:19:58.669Z,3628.00
2019-05-10T10:20:58.760Z,3708.00
2019-05-10T10:21:58.852Z,3824.00
2019-05-10T10:22:58.950Z,4164.00
2019-05-10T10:24:00.429Z,4244.00
2019-05-10T10:25:00.582Z,4084.00
2019-05-10T10:25:59.234Z,4300.00
2019-05-10T10:26:59.330Z,4844.00
2019-05-10T10:27:59.423Z,5772.00
2019-05-10T10:29:00.079Z,6736.00
2019-05-10T10:29:59.621Z,7248.00
2019-05-10T10:31:05.321Z,7348.00
2019-05-10T10:31:59.801Z,7040.00
2019-05-10T10:32:59.893Z,6224.00
2019-05-10T10:34:02.863Z,5984.00
2019-05-10T10:35:00.085Z,5700.00
2019-05-10T10:36:04.833Z,5244.00
2019-05-10T10:37:00.268Z,5088.00
2019-05-10T10:38:03.093Z,5236.00
2019-05-10T10:39:00.454Z,5052.00
2019-05-10T10:40:05.162Z,5196.00
2019-05-10T10:41:00.653Z,5096.00
2019-05-10T10:42:02.497Z,4964.00
2019-05-10T10:43:00.835Z,5092.00
2019-05-10T10:44:00.929Z,4992.00
2019-05-10T10:45:01.022Z,4912.00
2019-05-10T10:46:01.116Z,4708.00
2019-05-10T10:47:01.212Z,4528.00
2019-05-10T10:48:02.529Z,4700.00
2019-05-10T10:49:01.410Z,4716.00
2019-05-10T10:50:02.947Z,5272.00
2019-05-10T10:51:01.589Z,6276.00
2019-05-10T10:52:05.622Z,7052.00
2019-05-10T10:53:01.795Z,7612.00
2019-05-10T10:54:01.943Z,7712.00
2019-05-10T10:55:05.572Z,7536.00
2019-05-10T10:56:03.779Z,8028.00
2019-05-10T10:57:02.166Z,8356.00
2019-05-10T10:58:02.249Z,8240.00
2019-05-10T10:59:02.348Z,7944.00
2019-05-10T11:00:02.441Z,7660.00
2019-05-10T11:01:10.616Z,7408.00
2019-05-10T11:02:29.046Z,7124.00
2019-05-10T11:03:02.734Z,6956.00
2019-05-10T11:04:08.166Z,6800.00
2019-05-10T11:05:02.923Z,6780.00
2019-05-10T11:06:03.016Z,6768.00
2019-05-10T11:07:10.389Z,6784.00
2019-05-10T11:08:03.212Z,6884.00
2019-05-10T11:09:03.303Z,6892.00
2019-05-10T11:10:14.679Z,6980.00
2019-05-10T11:11:03.484Z,7064.00
2019-05-10T11:12:03.582Z,7360.00
2019-05-10T11:13:11.938Z,7692.00
2019-05-10T11:14:07.347Z,8100.00
2019-05-10T11:15:03.869Z,8380.00
2019-05-10T11:16:09.615Z,8556.00
2019-05-10T11:17:04.082Z,8728.00
2019-05-10T11:18:04.174Z,8916.00
2019-05-10T11:19:11.510Z,9044.00
2019-05-10T11:20:04.365Z,9176.00
2019-05-10T11:21:04.460Z,9448.00
2019-05-10T11:22:09.528Z,9668.00
2019-05-10T11:23:04.651Z,9428.00
2019-05-10T11:24:10.200Z,9520.00
2019-05-10T11:25:09.412Z,9596.00
2019-05-10T11:26:04.929Z,9208.00
2019-05-10T11:27:07.217Z,9020.00
2019-05-10T11:28:05.139Z,9140.00
2019-05-10T11:29:05.219Z,8960.00
2019-05-10T11:30:05.318Z,8512.00
2019-05-10T11:31:05.408Z,8332.00
2019-05-10T11:32:16.813Z,7848.00
2019-05-10T11:33:05.607Z,7264.00
2019-05-10T11:34:06.316Z,6836.00
2019-05-10T11:35:05.820Z,6760.00
2019-05-10T11:36:08.567Z,6760.00
2019-05-10T11:37:05.996Z,6656.00
2019-05-10T11:38:06.683Z,6756.00
2019-05-10T11:39:06.253Z,6960.00
2019-05-10T11:40:06.290Z,6908.00
2019-05-10T11:41:07.228Z,6644.00
2019-05-10T11:42:07.307Z,6028.00
2019-05-10T11:43:06.565Z,5552.00
2019-05-10T11:44:08.951Z,5036.00
2019-05-10T11:45:06.753Z,4500.00
2019-05-10T11:46:06.852Z,4228.00
2019-05-10T11:47:20.983Z,4124.00
2019-05-10T11:48:07.058Z,4168.00
2019-05-10T11:49:07.152Z,4192.00
2019-05-10T11:50:07.249Z,4364.00
2019-05-10T11:51:12.272Z,4604.00
2019-05-10T11:52:09.967Z,4924.00
2019-05-10T11:53:13.581Z,5192.00
2019-05-10T11:54:07.638Z,5420.00
2019-05-10T11:55:07.734Z,5708.00
2019-05-10T11:56:13.662Z,6116.00
2019-05-10T11:57:10.925Z,6608.00
2019-05-10T11:59:15.909Z,6732.00
2019-05-10T12:00:14.242Z,6768.00
2019-05-10T12:01:14.747Z,7368.00
2019-05-10T12:03:14.829Z,7128.00
2019-05-10T12:04:15.277Z,7160.00
2019-05-10T12:05:12.263Z,6968.00
2019-05-10T12:06:09.674Z,7696.00
2019-05-10T12:07:12.653Z,8752.00
2019-05-10T12:08:12.673Z,10128.00
2019-05-10T12:09:12.330Z,10904.00
2019-05-10T12:10:19.372Z,10388.00
2019-05-10T12:11:27.246Z,15200.00
2019-05-10T12:12:12.270Z,8948.00
2019-05-10T12:13:19.138Z,7708.00
2019-05-10T12:14:13.557Z,10464.00
2019-05-10T12:15:13.512Z,9564.00
2019-05-10T12:16:16.143Z,10436.00
2019-05-10T12:17:13.826Z,10168.00
2019-05-10T12:18:14.840Z,11044.00
2019-05-10T12:19:17.071Z,10776.00
2019-05-10T12:20:16.361Z,8528.00
2019-05-10T12:21:11.287Z,8932.00
2019-05-10T12:22:15.485Z,10420.00
2019-05-10T12:23:13.394Z,8024.00
2019-05-10T12:24:31.261Z,9384.00
2019-05-10T12:25:32.682Z,10620.00
2019-05-10T12:25:59.518Z,8852.00
2019-05-10T12:25:59.688Z,7828.00
2019-05-10T12:27:22.522Z,10612.00
2019-05-10T12:28:15.449Z,7644.00